Time;durP1;ratioP1;P1;durP2;ratioP2;P2;SDS_P1;SDS_P2;PMS_P1;PMS_P2;Temp;Humidity;BMP_temperature;BMP_pressure;BME280_temperature;BME280_humidity;BME280_pressure;Samples;Min_cycle;Max_cycle;Signal;HPM_P1;HPM_P2
2021/01/25 00:01:57;;;;;;;1.40;1.30;;;;;;;;;;5073672;28;20033;-48
2021/01/25 00:04:23;;;;;;;1.33;1.00;;;;;;;;;;5021585;28;20037;-46
2021/01/25 00:06:50;;;;;;;1.13;1.00;;;;;;;;;;5072892;28;20104;-45
2021/01/25 00:09:16;;;;;;;1.00;0.90;;;4.50;99.90;;;;;;5073532;28;20029;-45
2021/01/25 00:11:42;;;;;;;1.30;1.00;;;4.30;99.90;;;;;;5073840;28;20639;-46
2021/01/25 00:14:07;;;;;;;0.77;0.73;;;4.10;99.90;;;;;;5021179;28;20070;-45
2021/01/25 00:16:33;;;;;;;1.55;0.73;;;3.90;99.90;;;;;;5021496;28;20039;-49
2021/01/25 00:18:59;;;;;;;1.13;0.82;;;3.80;99.90;;;;;;5073534;28;20020;-49
2021/01/25 00:21:25;;;;;;;0.77;0.77;;;;;;;;;;5076561;28;20380;-49
2021/01/25 00:23:51;;;;;;;0.93;0.70;;;3.40;99.90;;;;;;5076825;28;20033;-48
2021/01/25 00:26:17;;;;;;;1.05;0.70;;;3.30;99.90;;;;;;4992445;28;20041;-46
2021/01/25 00:28:42;;;;;;;0.63;0.57;;;3.20;99.90;;;;;;5076795;28;20056;-48
2021/01/25 00:31:08;;;;;;;0.60;0.60;;;3.20;99.90;;;;;;5076956;28;20037;-49
2021/01/25 00:33:34;;;;;;;0.60;0.60;;;3.00;99.90;;;;;;5059016;28;20025;-48
2021/01/25 00:36:00;;;;;;;0.73;0.73;;;2.90;99.90;;;;;;5076559;28;20028;-46
2021/01/25 00:38:25;;;;;;;0.60;0.55;;;2.90;99.90;;;;;;5079877;28;20073;-47
2021/01/25 00:40:51;;;;;;;0.50;0.50;;;2.90;99.90;;;;;;5060119;28;20036;-49
2021/01/25 00:43:17;;;;;;;0.80;0.77;;;2.70;99.90;;;;;;5096755;28;20030;-48
2021/01/25 00:45:43;;;;;;;0.57;0.40;;;;;;;;;;5061143;28;20032;-46
2021/01/25 00:48:09;;;;;;;0.50;0.50;;;2.60;99.90;;;;;;5097067;28;20108;-46
2021/01/25 00:50:35;;;;;;;0.85;0.75;;;2.60;99.90;;;;;;5096888;28;20442;-45
2021/01/25 00:53:01;;;;;;;1.13;0.70;;;2.60;99.90;;;;;;5061399;28;20399;-47
2021/01/25 00:55:26;;;;;;;1.10;1.00;;;2.60;99.90;;;;;;5061364;28;20038;-47
2021/01/25 00:57:52;;;;;;;1.10;1.00;;;2.60;99.90;;;;;;5096719;28;20024;-46
2021/01/25 01:00:18;;;;;;;1.25;0.70;;;;;;;;;;5096960;28;20031;-49
2021/01/25 01:02:44;;;;;;;1.00;0.90;;;2.30;99.90;;;;;;5097059;28;20028;-46
2021/01/25 01:05:10;;;;;;;0.75;0.75;;;2.40;99.90;;;;;;5096576;28;20395;-45
2021/01/25 01:07:36;;;;;;;1.75;1.20;;;2.40;99.90;;;;;;5096746;28;20039;-48
2021/01/25 01:10:04;;;;;;;0.57;0.57;;;2.40;99.90;;;;;;5096374;28;20033;-46
2021/01/25 01:12:30;;;;;;;0.63;0.63;;;2.20;99.90;;;;;;5061306;28;20055;-47
2021/01/25 01:14:56;;;;;;;1.02;0.80;;;2.20;99.90;;;;;;5096957;28;20024;-48
2021/01/25 01:17:21;;;;;;;1.38;1.27;;;2.30;99.90;;;;;;5096796;28;20024;-46
2021/01/25 01:19:48;;;;;;;1.60;1.50;;;2.30;99.90;;;;;;5096481;28;20032;-48
2021/01/25 01:22:14;;;;;;;1.42;1.10;;;2.20;99.90;;;;;;5096264;28;20085;-47
2021/01/25 01:24:39;;;;;;;1.77;1.60;;;2.20;99.90;;;;;;5096722;28;20020;-49
2021/01/25 01:27:05;;;;;;;2.45;1.92;;;2.30;99.90;;;;;;5096411;28;20028;-46
2021/01/25 01:29:31;;;;;;;1.00;0.88;;;2.20;99.90;;;;;;5096769;28;20028;-46
2021/01/25 01:31:57;;;;;;;0.82;0.80;;;2.30;99.90;;;;;;5095390;28;20040;-48
2021/01/25 01:34:23;;;;;;;0.60;0.60;;;2.20;99.90;;;;;;5026928;28;20081;-48
2021/01/25 01:36:48;;;;;;;1.63;1.38;;;2.20;99.90;;;;;;5096893;28;20462;-46
2021/01/25 01:39:14;;;;;;;0.80;0.80;;;2.30;99.90;;;;;;5096316;28;20048;-46
2021/01/25 01:41:40;;;;;;;0.80;0.80;;;2.30;99.90;;;;;;5096202;28;20024;-48
2021/01/25 01:44:10;;;;;;;1.33;1.10;;;2.30;99.90;;;;;;5096501;28;20020;-48
2021/01/25 01:46:39;;;;;;;1.45;0.90;;;2.30;99.90;;;;;;5096000;28;20024;-48
2021/01/25 01:49:05;;;;;;;0.60;0.60;;;2.40;99.90;;;;;;5096030;28;20035;-47
2021/01/25 01:51:30;;;;;;;0.80;0.80;;;2.30;99.90;;;;;;5096105;28;20039;-44
2021/01/25 01:53:57;;;;;;;0.93;0.85;;;2.30;99.90;;;;;;5096131;28;20051;-47
2021/01/25 01:56:24;;;;;;;1.35;0.70;;;2.40;99.90;;;;;;5095883;28;20032;-48
2021/01/25 01:58:51;;;;;;;0.70;0.70;;;2.20;99.90;;;;;;5095684;28;20020;-48
2021/01/25 02:01:17;;;;;;;1.00;1.00;;;2.40;99.90;;;;;;5077541;28;20442;-46
2021/01/25 02:03:43;;;;;;;0.95;0.80;;;2.50;99.90;;;;;;5096079;28;20024;-49
2021/01/25 02:06:09;;;;;;;1.00;0.80;;;2.50;99.90;;;;;;5043158;28;20050;-47
2021/01/25 02:08:37;;;;;;;0.60;0.60;;;2.60;99.90;;;;;;5060222;28;20098;-48
2021/01/25 02:11:03;;;;;;;0.98;0.88;;;2.60;99.90;;;;;;5095898;28;20028;-47
2021/01/25 02:13:31;;;;;;;0.80;0.70;;;2.70;99.90;;;;;;5094858;28;20028;-49
2021/01/25 02:16:00;;;;;;;0.93;0.90;;;2.60;99.90;;;;;;5095520;28;20024;-47
2021/01/25 02:18:28;;;;;;;1.10;1.00;;;2.70;99.90;;;;;;5095713;28;20519;-45
2021/01/25 02:20:54;;;;;;;0.95;0.90;;;2.70;99.90;;;;;;5095324;28;20024;-46
2021/01/25 02:23:26;;;;;;;0.73;0.73;;;2.80;99.90;;;;;;5095083;28;20040;-47
2021/01/25 02:25:51;;;;;;;0.73;0.73;;;2.90;99.90;;;;;;5095110;28;20064;-46
2021/01/25 02:28:17;;;;;;;1.48;0.85;;;3.00;99.90;;;;;;5095054;28;20024;-46
2021/01/25 02:30:44;;;;;;;1.52;1.17;;;3.00;99.90;;;;;;5059381;28;20474;-49
2021/01/25 02:33:11;;;;;;;1.00;0.80;;;2.90;99.90;;;;;;4993433;28;20502;-47
2021/01/25 02:35:37;;;;;;;1.60;0.65;;;3.00;99.90;;;;;;5042468;28;20039;-47
2021/01/25 02:38:08;;;;;;;1.27;1.17;;;3.00;99.90;;;;;;5094929;28;20027;-48
2021/01/25 02:40:34;;;;;;;1.20;1.10;;;2.90;99.90;;;;;;5094849;28;20127;-48
2021/01/25 02:43:01;;;;;;;1.85;1.27;;;2.90;99.90;;;;;;5094547;28;20110;-46
2021/01/25 02:45:27;;;;;;;3.92;1.90;;;3.00;99.90;;;;;;5075664;28;20040;-48
2021/01/25 02:47:54;;;;;;;1.23;1.13;;;3.00;99.90;;;;;;5094721;28;20034;-48
2021/01/25 02:50:20;;;;;;;3.67;1.63;;;3.00;99.90;;;;;;5058367;28;20036;-49
2021/01/25 02:52:45;;;;;;;1.35;1.25;;;3.10;99.90;;;;;;5094697;28;20035;-48
2021/01/25 02:55:11;;;;;;;0.77;0.77;;;3.20;99.90;;;;;;5094352;28;20059;-47
2021/01/25 02:57:38;;;;;;;1.00;0.90;;;3.10;99.90;;;;;;5094159;28;20052;-47
2021/01/25 03:00:09;;;;;;;1.20;1.05;;;3.20;99.90;;;;;;5094549;28;20028;-50
2021/01/25 03:02:35;;;;;;;2.08;1.20;;;3.10;99.90;;;;;;5094250;28;20103;-47
2021/01/25 03:05:03;;;;;;;0.98;0.85;;;3.10;99.90;;;;;;5094016;28;20030;-48
2021/01/25 03:07:29;;;;;;;1.05;0.80;;;3.00;99.90;;;;;;5094336;28;20024;-48
2021/01/25 03:10:05;;;;;;;1.73;1.00;;;3.00;99.90;;;;;;5093905;28;20479;-46
2021/01/25 03:12:31;;;;;;;1.00;0.70;;;3.00;99.90;;;;;;5093764;28;20055;-49
2021/01/25 03:14:57;;;;;;;1.35;1.02;;;3.00;99.90;;;;;;5094168;28;20050;-47
2021/01/25 03:17:23;;;;;;;1.08;0.95;;;3.00;99.90;;;;;;5058334;28;20039;-46
2021/01/25 03:19:49;;;;;;;1.83;1.00;;;3.00;99.90;;;;;;5041568;28;20089;-46
2021/01/25 03:22:14;;;;;;;1.23;0.93;;;3.00;99.90;;;;;;5094069;28;20472;-46
2021/01/25 03:24:40;;;;;;;1.65;0.70;;;3.00;99.90;;;;;;5093813;28;20383;-48
2021/01/25 03:27:06;;;;;;;1.25;0.90;;;3.00;99.90;;;;;;5093747;28;20024;-47
2021/01/25 03:29:33;;;;;;;1.08;0.90;;;3.00;99.90;;;;;;5074771;28;20032;-44
2021/01/25 03:31:59;;;;;;;1.02;0.80;;;3.10;99.90;;;;;;5094020;28;20067;-48
2021/01/25 03:34:25;;;;;;;1.35;1.00;;;3.00;99.90;;;;;;5093341;28;20032;-48
2021/01/25 03:36:50;;;;;;;1.83;1.20;;;3.20;99.90;;;;;;5093903;28;20040;-46
2021/01/25 03:39:16;;;;;;;1.75;1.20;;;3.20;99.90;;;;;;5057886;28;20048;-47
2021/01/25 03:41:42;;;;;;;1.05;0.95;;;3.20;99.90;;;;;;5093309;28;20028;-47
2021/01/25 03:44:08;;;;;;;0.70;0.70;;;3.10;99.90;;;;;;5057924;28;20035;-49
2021/01/25 03:46:33;;;;;;;1.98;1.50;;;3.10;99.90;;;;;;5093475;28;20375;-49
2021/01/25 03:48:59;;;;;;;0.93;0.80;;;3.10;99.90;;;;;;5093335;28;20535;-47
2021/01/25 03:51:25;;;;;;;1.35;0.80;;;3.10;99.90;;;;;;5093403;28;20043;-49
2021/01/25 03:53:50;;;;;;;1.00;0.77;;;3.10;99.90;;;;;;5093004;28;20107;-47
2021/01/25 03:56:16;;;;;;;0.50;0.50;;;3.10;99.90;;;;;;5093558;28;20085;-49
2021/01/25 03:58:43;;;;;;;0.75;0.75;;;3.10;99.90;;;;;;5008214;28;20047;-46
2021/01/25 04:01:09;;;;;;;0.80;0.70;;;3.20;99.90;;;;;;5075515;28;20028;-46
2021/01/25 04:03:35;;;;;;;1.13;0.80;;;3.20;99.90;;;;;;5093017;28;20036;-49
2021/01/25 04:06:01;;;;;;;0.60;0.60;;;3.20;99.90;;;;;;5093431;28;20031;-47
2021/01/25 04:08:26;;;;;;;1.42;0.73;;;3.20;99.90;;;;;;5093168;28;20027;-47
2021/01/25 04:10:52;;;;;;;1.75;0.88;;;3.30;99.90;;;;;;5057681;28;20048;-45
2021/01/25 04:13:18;;;;;;;0.93;0.80;;;3.30;99.90;;;;;;5093280;28;20103;-48
2021/01/25 04:15:44;;;;;;;1.40;0.80;;;3.30;99.90;;;;;;5093280;28;20031;-47
2021/01/25 04:18:10;;;;;;;0.80;0.60;;;3.30;99.90;;;;;;5057572;28;20032;-49
2021/01/25 04:20:35;;;;;;;0.85;0.70;;;3.40;99.90;;;;;;5093253;28;20023;-48
2021/01/25 04:23:01;;;;;;;1.27;0.80;;;3.30;99.90;;;;;;5093221;28;20068;-47
2021/01/25 04:25:27;;;;;;;0.55;0.55;;;3.40;99.90;;;;;;5092857;28;20024;-48
2021/01/25 04:27:53;;;;;;;1.17;0.60;;;3.40;99.90;;;;;;5093233;28;20024;-48
2021/01/25 04:30:19;;;;;;;1.33;0.88;;;3.40;99.90;;;;;;5040872;28;20043;-49
2021/01/25 04:32:45;;;;;;;2.47;0.88;;;3.50;99.90;;;;;;5057139;28;20391;-48
2021/01/25 04:35:13;;;;;;;0.93;0.80;;;3.60;99.90;;;;;;5093264;28;20081;-49
2021/01/25 04:37:40;;;;;;;1.98;0.85;;;3.60;99.90;;;;;;5040856;28;20123;-49
2021/01/25 04:40:07;;;;;;;0.68;0.63;;;3.40;99.90;;;;;;5092717;28;20089;-48
2021/01/25 04:42:34;;;;;;;0.88;0.88;;;3.50;99.90;;;;;;5058521;28;20513;-48
2021/01/25 04:45:00;;;;;;;1.50;0.90;;;3.40;99.90;;;;;;5095430;28;20160;-46
2021/01/25 04:47:27;;;;;;;2.28;1.00;;;3.40;99.90;;;;;;5041232;28;20032;-49
2021/01/25 04:49:53;;;;;;;1.55;1.35;;;3.40;99.80;;;;;;5093168;28;20048;-49
2021/01/25 04:52:19;;;;;;;1.42;1.13;;;3.50;99.90;;;;;;5093027;28;20036;-49
2021/01/25 04:54:47;;;;;;;0.82;0.82;;;3.50;99.90;;;;;;5092706;28;20097;-46
2021/01/25 04:57:16;;;;;;;1.30;1.10;;;3.50;99.70;;;;;;5093045;28;20152;-48
2021/01/25 04:59:44;;;;;;;2.38;1.30;;;3.60;99.70;;;;;;5092996;28;20036;-46
2021/01/25 05:02:10;;;;;;;2.47;1.63;;;3.60;99.90;;;;;;5092742;28;20031;-46
2021/01/25 05:04:36;;;;;;;5.90;2.97;;;3.60;99.70;;;;;;5092971;28;20044;-47
2021/01/25 05:07:03;;;;;;;1.50;1.10;;;3.70;99.40;;;;;;5094670;28;20486;-49
2021/01/25 05:09:29;;;;;;;2.17;1.27;;;3.70;99.50;;;;;;5096184;28;20039;-51
2021/01/25 05:11:59;;;;;;;1.80;1.17;;;3.70;99.40;;;;;;4982039;28;20053;-48
2021/01/25 05:14:25;;;;;;;1.50;1.15;;;3.70;98.90;;;;;;5076544;28;20411;-49
2021/01/25 05:16:52;;;;;;;1.25;1.15;;;3.80;99.20;;;;;;5033665;28;20126;-48
2021/01/25 05:19:18;;;;;;;2.25;1.35;;;3.80;99.20;;;;;;5033967;28;20099;-46
2021/01/25 05:21:45;;;;;;;1.52;1.30;;;3.80;99.10;;;;;;5033872;28;20496;-45
2021/01/25 05:24:12;;;;;;;3.47;2.65;;;3.70;99.30;;;;;;5000825;28;20087;-46
2021/01/25 05:26:52;;;;;;;2.17;1.98;;;3.80;99.10;;;;;;4984587;28;20041;-46
2021/01/25 05:29:25;;;;;;;1.67;1.58;;;3.80;99.00;;;;;;5033736;28;20104;-46
2021/01/25 05:31:52;;;;;;;2.63;1.67;;;3.90;98.80;;;;;;4997957;28;20042;-45
2021/01/25 05:34:19;;;;;;;1.95;1.70;;;4.00;98.20;;;;;;5033809;28;20465;-45
2021/01/25 05:36:45;;;;;;;2.25;1.50;;;4.00;98.60;;;;;;5000920;28;20187;-48
2021/01/25 05:39:18;;;;;;;3.13;1.70;;;3.90;98.30;;;;;;4983888;28;20045;-46
2021/01/25 05:41:56;;;;;;;;;;;3.90;98.20;;;;;;5034218;28;20116;-46
2021/01/25 05:44:22;;;;;;;2.78;1.88;;;3.90;98.10;;;;;;5033805;28;20419;-48
2021/01/25 05:46:48;;;;;;;2.83;2.30;;;4.00;98.10;;;;;;5036561;28;20025;-46
2021/01/25 05:49:25;;;;;;;1.67;1.52;;;4.00;98.00;;;;;;5075894;28;20029;-49
2021/01/25 05:51:54;;;;;;;1.95;1.60;;;4.00;97.40;;;;;;5075711;28;20094;-46
2021/01/25 05:54:23;;;;;;;2.75;2.28;;;4.10;97.00;;;;;;5079997;28;20110;-48
2021/01/25 05:56:49;;;;;;;3.33;2.25;;;4.20;97.10;;;;;;5055015;28;20032;-47
2021/01/25 05:59:15;;;;;;;3.00;2.65;;;4.20;97.00;;;;;;5096262;28;20031;-47
2021/01/25 06:01:43;;;;;;;2.63;2.00;;;4.30;96.60;;;;;;5095438;28;20361;-52
2021/01/25 06:04:09;;;;;;;3.20;2.10;;;;;;;;;;5043532;28;20040;-51
2021/01/25 06:06:35;;;;;;;3.47;2.38;;;4.40;96.10;;;;;;5043526;28;20033;-47
2021/01/25 06:09:23;;;;;;;2.67;1.80;;;4.40;96.10;;;;;;5043126;28;20089;-48
2021/01/25 06:11:49;;;;;;;2.63;1.92;;;4.40;95.60;;;;;;5095605;28;20028;-48
2021/01/25 06:14:51;;;;;;;3.30;2.30;;;4.40;95.60;;;;;;5095848;28;20024;-48
2021/01/25 06:17:19;;;;;;;3.28;2.03;;;4.50;95.80;;;;;;5095090;28;20028;-47
2021/01/25 06:19:46;;;;;;;2.60;2.10;;;4.50;95.40;;;;;;5095541;28;20032;-49
2021/01/25 06:22:12;;;;;;;3.17;2.60;;;;;;;;;;5095571;28;20050;-42
2021/01/25 06:24:40;;;;;;;5.20;2.50;;;4.50;95.00;;;;;;5094878;28;20030;-50
2021/01/25 06:27:06;;;;;;;5.88;4.00;;;4.60;95.20;;;;;;5095492;28;20028;-48
2021/01/25 06:29:32;;;;;;;2.88;2.30;;;4.70;95.20;;;;;;5095232;28;20027;-52
2021/01/25 06:32:02;;;;;;;3.15;2.17;;;4.70;94.80;;;;;;5095315;28;20040;-50
2021/01/25 06:34:28;;;;;;;3.97;2.28;;;4.80;94.40;;;;;;5095576;28;20392;-48
2021/01/25 06:36:54;;;;;;;3.85;3.15;;;4.80;94.00;;;;;;5094873;28;20023;-46
2021/01/25 06:39:25;;;;;;;5.35;3.88;;;4.80;94.30;;;;;;5097923;28;20048;-47
2021/01/25 06:42:00;;;;;;;5.13;3.50;;;4.90;94.00;;;;;;5075165;28;20070;-47
2021/01/25 06:44:28;;;;;;;4.70;3.50;;;4.90;93.70;;;;;;5115414;28;20119;-46
2021/01/25 06:46:58;;;;;;;3.50;2.60;;;4.90;93.30;;;;;;5115340;28;20421;-46
2021/01/25 06:49:25;;;;;;;4.10;2.95;;;4.90;93.00;;;;;;5115469;28;20024;-48
2021/01/25 06:51:53;;;;;;;2.83;2.47;;;4.90;92.80;;;;;;5078816;28;20035;-46
2021/01/25 06:54:23;;;;;;;3.38;2.40;;;4.90;92.70;;;;;;5115338;28;20035;-47
2021/01/25 06:56:56;;;;;;;3.25;2.17;;;4.90;92.60;;;;;;5115680;28;20085;-46
2021/01/25 06:59:30;;;;;;;2.75;1.98;;;4.90;92.60;;;;;;5115266;28;20469;-46
2021/01/25 07:01:57;;;;;;;2.80;2.20;;;4.90;92.20;;;;;;5062727;28;20027;-47
2021/01/25 07:04:25;;;;;;;3.30;2.10;;;4.90;92.10;;;;;;5062994;28;20039;-46
2021/01/25 07:06:54;;;;;;;2.63;1.92;;;4.90;91.70;;;;;;5114639;28;20146;-47
2021/01/25 07:09:30;;;;;;;5.00;3.13;;;;;;;;;;5114821;28;20027;-47
2021/01/25 07:12:01;;;;;;;9.13;5.80;;;8.20;99.60;;;;;;5114836;28;20032;-47
2021/01/25 07:14:28;;;;;;;3.00;2.65;;;;;;;;;;5114931;28;20046;-47
2021/01/25 07:16:56;;;;;;;4.00;2.75;;;13.30;74.40;;;;;;5114181;28;20106;-46
2021/01/25 07:19:23;;;;;;;4.90;3.10;;;;;;;;;;5114496;28;20467;-47
2021/01/25 07:21:50;;;;;;;4.85;3.25;;;16.60;55.20;;;;;;5114340;28;20069;-46
2021/01/25 07:24:22;;;;;;;4.70;2.45;;;18.20;67.70;;;;;;5114279;28;20076;-46
2021/01/25 07:26:52;;;;;;;3.80;2.72;;;19.00;71.70;;;;;;5113825;28;20028;-48
2021/01/25 07:29:19;;;;;;;3.35;2.65;;;19.50;45.60;;;;;;5113121;28;20104;-48
2021/01/25 07:31:45;;;;;;;3.75;3.00;;;19.90;42.10;;;;;;5061178;28;20036;-48
2021/01/25 07:34:14;;;;;;;4.10;3.70;;;20.60;40.40;;;;;;5114257;28;20359;-48
2021/01/25 07:36:41;;;;;;;5.05;3.05;;;;;;;;;;5113848;28;20030;-45
2021/01/25 07:39:17;;;;;;;4.55;3.20;;;22.10;37.50;;;;;;5113885;28;20130;-47
2021/01/25 07:41:44;;;;;;;4.18;3.15;;;21.60;41.50;;;;;;5080490;28;20031;-46
2021/01/25 07:44:12;;;;;;;4.80;4.05;;;20.50;36.80;;;;;;5114108;28;20366;-49
2021/01/25 07:46:38;;;;;;;6.18;4.40;;;20.60;37.70;;;;;;5113950;28;20081;-52
2021/01/25 07:49:04;;;;;;;4.25;3.85;;;20.90;38.30;;;;;;5113953;28;20080;-50
2021/01/25 07:51:36;;;;;;;6.07;5.47;;;21.40;37.30;;;;;;5113712;28;20039;-51
2021/01/25 07:54:03;;;;;;;5.10;4.60;;;21.50;57.70;;;;;;5097125;28;20054;-46
2021/01/25 07:56:29;;;;;;;7.13;6.43;;;;;;;;;;5087942;28;20416;-47
2021/01/25 07:59:14;;;;;;;6.63;5.75;;;22.60;34.50;;;;;;5093512;28;20426;-51
2021/01/25 08:02:01;;;;;;;7.30;6.57;;;23.20;33.90;;;;;;5093624;28;20036;-60
2021/01/25 08:04:31;;;;;;;6.22;5.63;;;23.70;33.50;;;;;;5081289;28;20028;-50
2021/01/25 08:06:58;;;;;;;11.50;10.68;;;23.30;32.80;;;;;;5080901;28;20393;-47
2021/01/25 08:09:24;;;;;;;11.02;10.23;;;23.50;32.60;;;;;;5072363;28;20025;-52
2021/01/25 08:11:51;;;;;;;8.77;8.15;;;;;;;;;;5079386;28;20089;-46
2021/01/25 08:14:34;;;;;;;6.78;6.20;;;24.20;39.70;;;;;;5093482;28;20068;-46
2021/01/25 08:17:09;;;;;;;7.13;6.25;;;24.00;31.50;;;;;;5093567;28;20024;-46
2021/01/25 08:19:48;;;;;;;5.50;5.00;;;23.90;32.40;;;;;;5085273;28;20035;-47
2021/01/25 08:22:22;;;;;;;5.38;4.88;;;25.30;31.10;;;;;;5017920;28;20033;-47
2021/01/25 08:25:00;;;;;;;5.47;4.97;;;24.80;30.60;;;;;;5031095;28;20034;-46
2021/01/25 08:27:29;;;;;;;4.68;4.03;;;24.80;30.80;;;;;;5030903;28;20057;-46
2021/01/25 08:30:05;;;;;;;7.25;5.32;;;24.60;30.80;;;;;;5031111;28;20125;-46
2021/01/25 08:32:46;;;;;;;6.80;6.18;;;24.80;31.30;;;;;;5030444;28;20049;-46
2021/01/25 08:35:12;;;;;;;7.90;7.10;;;25.10;30.50;;;;;;5030902;28;20436;-46
2021/01/25 08:37:38;;;;;;;8.45;7.75;;;25.40;30.00;;;;;;5031058;28;20068;-46
2021/01/25 08:40:20;;;;;;;9.32;8.68;;;25.50;29.70;;;;;;5031377;28;20068;-46
2021/01/25 08:42:46;;;;;;;9.35;8.70;;;25.70;29.70;;;;;;5034240;28;20127;-46
2021/01/25 08:45:27;;;;;;;5.43;5.03;;;25.60;29.70;;;;;;5034656;28;20503;-47
2021/01/25 08:48:05;;;;;;;5.65;4.90;;;25.90;29.60;;;;;;5034529;28;20088;-47
2021/01/25 08:50:31;;;;;;;9.25;7.90;;;25.70;28.70;;;;;;5001006;28;20041;-46
2021/01/25 08:53:02;;;;;;;8.77;8.27;;;26.10;29.80;;;;;;5049704;28;20587;-47
2021/01/25 08:55:40;;;;;;;7.97;7.28;;;26.10;28.40;;;;;;5074446;28;20020;-47
2021/01/25 08:58:25;;;;;;;10.30;9.75;;;26.90;29.70;;;;;;5074041;28;20202;-46
2021/01/25 09:00:51;;;;;;;8.88;7.82;;;26.80;27.60;;;;;;5074112;28;20020;-47
2021/01/25 09:03:19;;;;;;;12.73;11.93;;;26.80;28.30;;;;;;5024112;28;20435;-46
2021/01/25 09:05:46;;;;;;;12.10;10.75;;;26.80;28.30;;;;;;5074185;28;20064;-47
2021/01/25 09:08:11;;;;;;;6.80;6.00;;;26.90;28.70;;;;;;5057181;28;20144;-46
2021/01/25 09:10:37;;;;;;;15.90;15.00;;;26.70;28.50;;;;;;5074117;28;20036;-47
2021/01/25 09:13:03;;;;;;;16.83;15.90;;;27.00;28.20;;;;;;5078609;28;20047;-46
2021/01/25 09:15:29;;;;;;;10.38;9.88;;;27.00;27.70;;;;;;5096324;28;20490;-47
2021/01/25 09:17:56;;;;;;;13.50;12.80;;;27.30;28.30;;;;;;5060976;28;20067;-47
2021/01/25 09:20:23;;;;;;;9.73;9.07;;;27.00;27.50;;;;;;5093296;28;20353;-46
2021/01/25 09:22:49;;;;;;;13.73;13.02;;;27.10;27.30;;;;;;5096132;28;20024;-46
2021/01/25 09:25:16;;;;;;;11.43;10.45;;;27.10;27.00;;;;;;5096256;28;20035;-47
2021/01/25 09:27:43;;;;;;;16.58;15.65;;;27.80;27.60;;;;;;5043862;28;20105;-46
2021/01/25 09:30:11;;;;;;;11.25;10.68;;;27.80;26.60;;;;;;5095992;28;20039;-47
2021/01/25 09:32:38;;;;;;;16.75;13.70;;;28.00;25.80;;;;;;5033436;28;20085;-46
2021/01/25 09:38:12;;;;;;;10.82;9.38;;;27.90;26.40;;;;;;5033691;28;20044;-47
2021/01/25 09:40:38;;;;;;;16.77;15.35;;;27.70;26.50;;;;;;4980695;28;20116;-46
2021/01/25 09:43:04;;;;;;;26.17;24.60;;;28.10;26.10;;;;;;5013388;28;20038;-45
2021/01/25 09:45:29;;;;;;;6.40;6.00;;;28.10;26.40;;;;;;5013386;28;20034;-47
2021/01/25 09:47:56;;;;;;;21.15;20.05;;;26.90;25.50;;;;;;5013325;28;20456;-47
2021/01/25 09:50:22;;;;;;;16.00;14.77;;;26.70;26.20;;;;;;5013399;28;20069;-50
2021/01/25 09:52:48;;;;;;;11.30;10.55;;;26.90;26.30;;;;;;5012488;28;20421;-45
2021/01/25 09:55:16;;;;;;;10.52;9.82;;;26.30;26.30;;;;;;5012264;28;20120;-53
2021/01/25 09:57:42;;;;;;;45.33;43.20;;;24.60;26.70;;;;;;5012851;28;20137;-50
2021/01/25 10:00:09;;;;;;;15.82;13.60;;;23.40;26.50;;;;;;5013220;28;20509;-48
2021/01/25 10:02:35;;;;;;;13.27;12.10;;;23.60;27.70;;;;;;4993363;28;20046;-52
2021/01/25 10:05:01;;;;;;;12.13;11.43;;;24.30;28.10;;;;;;4993581;28;20421;-54
2021/01/25 10:07:26;;;;;;;13.20;11.98;;;23.70;27.40;;;;;;4993718;28;20061;-49
2021/01/25 10:09:54;;;;;;;33.15;30.83;;;23.90;27.90;;;;;;4993947;28;20508;-56
2021/01/25 10:12:23;;;;;;;66.03;62.70;;;23.50;27.40;;;;;;5032030;28;20132;-48
2021/01/25 10:14:49;;;;;;;156.43;93.03;;;21.80;28.80;;;;;;4967314;28;20060;-49
2021/01/25 10:17:15;;;;;;;117.18;110.60;;;21.80;30.00;;;;;;5032932;28;20049;-52
2021/01/25 10:19:41;;;;;;;75.25;70.88;;;22.90;28.50;;;;;;5032729;28;20029;-48
2021/01/25 10:22:07;;;;;;;61.90;58.33;;;24.00;27.90;;;;;;5016017;28;20030;-46
2021/01/25 10:24:34;;;;;;;73.97;70.25;;;24.60;27.00;;;;;;5043396;28;20223;-56
2021/01/25 10:27:07;;;;;;;58.13;55.10;;;24.90;27.20;;;;;;5002273;28;20033;-44
2021/01/25 11:33:31;;;;;;;3.60;3.07;;;17.70;32.80;;;;;;5050029;28;20557;-48
2021/01/25 11:35:57;;;;;;;8.93;3.83;;;17.80;35.10;;;;;;4991916;28;20331;-45
2021/01/25 11:38:23;;;;;;;8.88;2.55;;;17.80;35.60;;;;;;4991938;28;20069;-48
2021/01/25 11:40:49;;;;;;;5.28;1.90;;;17.80;35.00;;;;;;4991830;28;20096;-48
2021/01/25 11:43:18;;;;;;;3.65;1.52;;;17.80;35.10;;;;;;4991602;28;20152;-50
2021/01/25 11:45:44;;;;;;;3.80;1.70;;;17.50;33.80;;;;;;4992044;28;20546;-49
2021/01/25 11:48:10;;;;;;;2.17;1.80;;;17.20;34.40;;;;;;4959492;28;20042;-48
2021/01/25 11:50:35;;;;;;;2.53;2.00;;;16.80;35.70;;;;;;4991841;28;20535;-49
2021/01/25 11:53:01;;;;;;;2.40;2.20;;;16.40;35.40;;;;;;4991892;28;20046;-48
2021/01/25 11:55:27;;;;;;;2.10;1.33;;;16.00;35.90;;;;;;4991856;28;20052;-48
2021/01/25 11:57:53;;;;;;;1.45;1.10;;;15.30;36.20;;;;;;4991946;28;20042;-48
2021/01/25 12:00:19;;;;;;;5.13;3.65;;;;;;;;;;4991915;28;20533;-48
2021/01/25 12:02:45;;;;;;;7.70;1.70;;;14.40;40.70;;;;;;4991804;28;20038;-48
2021/01/25 12:05:11;;;;;;;4.32;2.03;;;14.60;42.60;;;;;;4974864;28;20113;-49
2021/01/25 12:07:37;;;;;;;9.25;5.30;;;14.60;43.50;;;;;;4990625;28;20124;-47
2021/01/25 12:10:05;;;;;;;4.45;2.97;;;13.60;39.00;;;;;;5011144;28;20121;-47
2021/01/25 12:12:30;;;;;;;3.35;2.00;;;13.70;40.30;;;;;;4978513;28;20050;-46
2021/01/25 12:14:56;;;;;;;2.03;1.45;;;13.80;40.50;;;;;;4995358;28;20044;-46
2021/01/25 12:17:22;;;;;;;2.00;1.23;;;14.00;39.90;;;;;;5015285;28;20377;-47
2021/01/25 12:19:47;;;;;;;2.38;1.48;;;13.90;39.50;;;;;;5008611;28;20084;-46
2021/01/25 12:22:13;;;;;;;2.58;1.40;;;13.80;38.70;;;;;;5057642;28;20060;-47
2021/01/25 12:24:40;;;;;;;6.60;2.90;;;;;;;;;;5057020;28;20075;-46
2021/01/25 12:27:05;;;;;;;9.45;2.78;;;13.80;39.50;;;;;;5057231;28;20084;-46
2021/01/25 12:29:31;;;;;;;2.63;1.20;;;13.80;39.30;;;;;;5056945;28;20021;-47
2021/01/25 12:31:57;;;;;;;5.85;1.60;;;13.80;39.00;;;;;;5056800;28;20043;-47
2021/01/25 12:34:26;;;;;;;3.55;1.40;;;13.80;40.20;;;;;;5063735;28;20049;-48
2021/01/25 12:36:53;;;;;;;3.75;1.45;;;13.50;39.40;;;;;;5077008;28;20038;-48
2021/01/25 12:39:18;;;;;;;3.35;1.40;;;13.40;41.50;;;;;;5079548;28;20463;-48
2021/01/25 12:41:44;;;;;;;9.05;4.88;;;13.30;42.30;;;;;;5097052;28;20039;-49
2021/01/25 12:44:10;;;;;;;6.00;2.83;;;13.30;42.20;;;;;;5097067;28;20047;-48
2021/01/25 12:46:36;;;;;;;9.38;2.40;;;13.10;42.60;;;;;;5061076;28;20040;-48
2021/01/25 12:49:03;;;;;;;0.93;0.70;;;13.20;43.60;;;;;;5097180;28;20111;-47
2021/01/25 12:51:29;;;;;;;6.70;5.75;;;13.20;39.90;;;;;;5096910;28;20036;-47
2021/01/25 12:53:55;;;;;;;3.88;2.72;;;13.00;40.70;;;;;;5096911;28;20032;-48
2021/01/25 12:56:21;;;;;;;2.65;1.67;;;12.80;41.70;;;;;;5096990;28;20111;-47
2021/01/25 12:58:47;;;;;;;3.38;1.75;;;12.60;41.70;;;;;;5096991;28;20379;-48
2021/01/25 13:01:12;;;;;;;20.98;4.30;;;12.70;42.00;;;;;;5096689;28;20034;-48
2021/01/25 13:03:40;;;;;;;2.10;1.20;;;12.70;42.70;;;;;;5096650;28;20035;-47
2021/01/25 13:06:07;;;;;;;4.20;2.33;;;12.20;42.50;;;;;;5096944;28;20032;-48
2021/01/25 13:08:33;;;;;;;243.88;111.65;;;12.30;43.20;;;;;;5096727;28;20471;-48
2021/01/25 13:10:59;;;;;;;21.85;11.38;;;12.30;43.30;;;;;;5096634;28;20464;-47
2021/01/25 13:13:25;;;;;;;14.07;8.40;;;12.30;43.90;;;;;;5096636;28;20040;-47
2021/01/25 13:15:50;;;;;;;30.88;9.82;;;12.40;45.20;;;;;;5096126;28;20028;-48
2021/01/25 13:18:16;;;;;;;4.68;2.83;;;12.40;43.90;;;;;;5044186;28;20380;-48
2021/01/25 13:20:44;;;;;;;5.65;3.35;;;11.20;44.00;;;;;;5096383;28;20024;-47
2021/01/25 13:23:11;;;;;;;8.30;5.18;;;;;;;;;;5096117;28;20035;-48
2021/01/25 13:25:36;;;;;;;5.78;3.25;;;10.70;57.80;;;;;;5096109;28;20047;-47
2021/01/25 13:28:02;;;;;;;1.00;0.80;;;10.80;47.40;;;;;;5095001;28;20032;-47
2021/01/25 13:30:28;;;;;;;2.40;1.58;;;10.60;45.50;;;;;;4997357;28;20429;-48
2021/01/25 13:32:54;;;;;;;5.45;2.00;;;10.90;47.30;;;;;;5096012;28;20414;-47
2021/01/25 13:35:21;;;;;;;3.60;2.40;;;11.20;48.30;;;;;;5077337;28;20070;-47
2021/01/25 13:37:49;;;;;;;4.80;2.20;;;11.30;48.40;;;;;;5092536;28;20111;-47
2021/01/25 13:40:16;;;;;;;3.67;2.08;;;11.30;48.70;;;;;;5033451;28;20139;-48
2021/01/25 13:42:42;;;;;;;7.47;4.57;;;11.20;48.50;;;;;;5033354;28;20112;-48
2021/01/25 13:45:11;;;;;;;6.25;4.68;;;11.10;49.20;;;;;;5033110;28;20393;-48
2021/01/25 13:47:37;;;;;;;8.98;5.05;;;11.30;50.20;;;;;;5033131;28;20045;-47
2021/01/25 13:50:04;;;;;;;7.93;5.90;;;11.10;50.20;;;;;;5033297;28;20033;-48
2021/01/25 13:52:30;;;;;;;8.15;5.45;;;11.30;50.20;;;;;;5032808;28;20491;-47
2021/01/25 13:54:56;;;;;;;3.45;2.30;;;11.30;50.90;;;;;;5033217;28;20037;-47
2021/01/25 13:57:21;;;;;;;9.13;5.75;;;11.10;49.20;;;;;;5033157;28;20033;-48
2021/01/25 13:59:47;;;;;;;15.10;9.85;;;11.10;50.70;;;;;;5032802;28;20087;-47
2021/01/25 14:02:13;;;;;;;11.00;7.90;;;11.10;52.50;;;;;;5033047;28;20037;-48
2021/01/25 14:04:39;;;;;;;13.27;10.80;;;11.10;53.90;;;;;;5032947;28;20042;-48